createdAt,value
2023-06-16T00:00:44.605Z,98251.50
2023-06-16T00:03:17.355Z,98249.72
2023-06-16T00:05:46.392Z,98248.53
2023-06-16T00:08:13.448Z,98249.88
2023-06-16T00:10:40.232Z,98257.31
2023-06-16T00:13:06.913Z,98253.44
2023-06-16T00:15:33.669Z,98256.06
2023-06-16T00:18:01.246Z,98255.44
2023-06-16T00:20:29.002Z,98252.47
2023-06-16T00:22:56.150Z,98253.13
2023-06-16T00:25:23.059Z,98250.50
2023-06-16T00:27:49.762Z,98242.13
2023-06-16T00:30:17.180Z,98267.06
2023-06-16T00:32:45.069Z,98259.06
2023-06-16T00:35:13.007Z,98260.03
2023-06-16T00:37:39.654Z,98268.19
2023-06-16T00:40:07.471Z,98260.19
2023-06-16T00:42:35.016Z,98253.50
2023-06-16T00:45:01.925Z,98256.72
2023-06-16T00:47:28.909Z,98255.72
2023-06-16T00:49:55.736Z,98256.34
2023-06-16T00:52:29.190Z,98268.94
2023-06-16T00:54:57.314Z,98251.94
2023-06-16T00:57:24.232Z,98263.38
2023-06-16T00:59:50.980Z,98263.53
2023-06-16T01:02:19.849Z,98261.72
2023-06-16T01:04:48.650Z,98249.59
2023-06-16T01:07:22.545Z,98253.06
2023-06-16T01:09:56.638Z,98240.81
2023-06-16T01:12:41.785Z,98253.22
2023-06-16T01:15:16.837Z,98262.50
2023-06-16T01:17:46.897Z,98258.72
2023-06-16T01:20:28.955Z,98253.47
2023-06-16T01:23:15.884Z,98254.94
2023-06-16T01:25:45.406Z,98251.38
2023-06-16T01:28:20.366Z,98245.44
2023-06-16T01:30:51.587Z,98255.63
2023-06-16T01:33:22.108Z,98246.88
2023-06-16T01:35:51.625Z,98250.13
2023-06-16T01:38:19.998Z,98247.81
2023-06-16T01:40:48.271Z,98247.75
2023-06-16T01:43:16.077Z,98249.19
2023-06-16T01:45:43.344Z,98242.03
2023-06-16T01:48:10.388Z,98238.56
2023-06-16T01:50:37.769Z,98241.34
2023-06-16T01:53:04.511Z,98238.56
2023-06-16T01:55:32.509Z,98241.84
2023-06-16T01:57:59.475Z,98244.28
2023-06-16T02:00:34.150Z,98243.69
2023-06-16T02:03:08.335Z,98245.78
2023-06-16T02:05:38.440Z,98243.97
2023-06-16T02:08:09.149Z,98247.06
2023-06-16T02:10:36.807Z,98245.81
2023-06-16T02:13:03.703Z,98256.41
2023-06-16T02:15:33.449Z,98245.41
2023-06-16T02:18:00.653Z,98245.88
2023-06-16T02:20:27.468Z,98255.31
2023-06-16T02:22:54.843Z,98255.31
2023-06-16T02:25:23.210Z,98258.59
2023-06-16T02:27:50.166Z,98256.44
2023-06-16T02:30:17.559Z,98254.41
2023-06-16T02:32:57.051Z,98253.38
2023-06-16T02:35:28.624Z,98266.88
2023-06-16T02:37:55.823Z,98247.38
2023-06-16T02:40:23.276Z,98254.41
2023-06-16T02:42:50.063Z,98261.88
2023-06-16T02:45:18.662Z,98255.63
2023-06-16T02:47:46.326Z,98253.84
2023-06-16T02:50:13.249Z,98263.44
2023-06-16T02:52:42.420Z,98251.41
2023-06-16T02:55:14.495Z,98266.22
2023-06-16T02:57:46.702Z,98267.97
2023-06-16T03:00:14.264Z,98257.81
2023-06-16T03:03:01.191Z,98253.88
2023-06-16T03:05:28.863Z,98260.03
2023-06-16T03:07:56.439Z,98265.78
2023-06-16T03:10:25.018Z,98267.28
2023-06-16T03:13:16.505Z,98261.53
2023-06-16T03:15:44.728Z,98271.22
2023-06-16T03:18:12.496Z,98270.41
2023-06-16T03:20:40.599Z,98281.38
2023-06-16T03:23:17.728Z,98277.16
2023-06-16T03:25:44.796Z,98278.47
2023-06-16T03:28:14.773Z,98281.53
2023-06-16T03:30:41.653Z,98286.38
2023-06-16T03:33:10.919Z,98287.84
2023-06-16T03:35:39.983Z,98287.28
2023-06-16T03:38:13.180Z,98290.44
2023-06-16T03:40:42.853Z,98285.38
2023-06-16T03:43:10.306Z,98290.88
2023-06-16T03:45:37.274Z,98297.50
2023-06-16T03:48:06.480Z,98302.34
2023-06-16T03:50:42.796Z,98302.09
2023-06-16T03:53:16.803Z,98305.50
2023-06-16T03:55:45.317Z,98310.44
2023-06-16T03:58:14.566Z,98314.69
2023-06-16T04:00:41.570Z,98317.03
2023-06-16T04:03:09.569Z,98298.97
2023-06-16T04:05:36.862Z,98304.44
2023-06-16T04:08:05.288Z,98301.94
2023-06-16T04:10:34.651Z,98303.97
2023-06-16T04:13:01.533Z,98308.66
2023-06-16T04:15:32.103Z,98309.47
2023-06-16T04:17:59.474Z,98307.41
2023-06-16T04:20:26.139Z,98309.16
2023-06-16T04:22:53.206Z,98320.59
2023-06-16T04:25:22.896Z,98314.56
2023-06-16T04:27:52.930Z,98311.28
2023-06-16T04:30:25.485Z,98309.31
2023-06-16T04:32:56.084Z,98315.81
2023-06-16T04:35:23.679Z,98311.31
2023-06-16T04:37:51.092Z,98309.16
2023-06-16T04:40:18.387Z,98312.34
2023-06-16T04:42:45.227Z,98317.81
2023-06-16T04:45:12.467Z,98308.88
2023-06-16T04:47:43.952Z,98309.16
2023-06-16T04:50:11.429Z,98302.75
2023-06-16T04:52:39.014Z,98303.28
2023-06-16T04:55:06.153Z,98303.28
2023-06-16T04:57:33.815Z,98304.78
2023-06-16T05:00:01.420Z,98314.50
2023-06-16T05:02:28.782Z,98323.44
2023-06-16T05:04:57.354Z,98312.06
2023-06-16T05:07:24.087Z,98314.22
2023-06-16T05:09:50.833Z,98314.63
2023-06-16T05:12:17.659Z,98315.28
2023-06-16T05:14:45.517Z,98319.09
2023-06-16T05:17:12.442Z,98319.88
2023-06-16T05:19:40.640Z,98307.22
2023-06-16T05:22:07.846Z,98311.31
2023-06-16T05:24:36.167Z,98310.22
2023-06-16T05:27:04.366Z,98314.81
2023-06-16T05:29:32.753Z,98324.13
2023-06-16T05:32:00.208Z,98330.91
2023-06-16T05:34:27.181Z,98326.19
2023-06-16T05:36:54.340Z,98326.19
2023-06-16T05:39:23.521Z,98317.44
2023-06-16T05:41:50.214Z,98322.88
2023-06-16T05:44:18.860Z,98322.94
2023-06-16T05:46:45.826Z,98326.19
2023-06-16T05:49:16.746Z,98327.41
2023-06-16T05:51:43.539Z,98332.16
2023-06-16T05:54:10.305Z,98340.97
2023-06-16T05:56:37.694Z,98339.69
2023-06-16T05:59:05.076Z,98340.06
2023-06-16T06:01:33.772Z,98341.41
2023-06-16T06:04:00.863Z,98345.03
2023-06-16T06:06:29.192Z,98354.59
2023-06-16T06:08:56.452Z,98352.28
2023-06-16T06:11:23.414Z,98347.22
2023-06-16T06:13:50.511Z,98354.91
2023-06-16T06:16:17.327Z,98354.34
2023-06-16T06:18:48.694Z,98355.28
2023-06-16T06:21:16.190Z,98364.56
2023-06-16T06:23:42.902Z,98370.75
2023-06-16T06:26:10.293Z,98361.00
2023-06-16T06:28:37.051Z,98367.41
2023-06-16T06:31:03.983Z,98368.97
2023-06-16T06:33:32.804Z,98365.13
2023-06-16T06:35:59.812Z,98373.19
2023-06-16T06:38:27.308Z,98373.75
2023-06-16T06:40:54.938Z,98376.03
2023-06-16T06:43:21.910Z,98375.59
2023-06-16T06:45:54.182Z,98381.59
2023-06-16T06:48:21.700Z,98384.13
2023-06-16T06:50:52.948Z,98378.34
2023-06-16T06:53:20.190Z,98391.53
2023-06-16T06:55:47.090Z,98384.88
2023-06-16T06:58:13.832Z,98394.84
2023-06-16T07:00:40.584Z,98377.38
2023-06-16T07:03:07.520Z,98384.09
2023-06-16T07:05:35.306Z,98367.09
2023-06-16T07:08:05.315Z,98379.09
2023-06-16T07:10:33.935Z,98373.56
2023-06-16T07:13:00.852Z,98365.25
2023-06-16T07:15:27.578Z,98366.91
2023-06-16T07:17:54.310Z,98364.44
2023-06-16T07:20:21.526Z,98351.88
2023-06-16T07:22:48.516Z,98367.00
2023-06-16T07:25:16.984Z,98361.94
2023-06-16T07:27:44.325Z,98361.34
2023-06-16T07:30:12.062Z,98361.34
2023-06-16T07:32:40.972Z,98371.97
2023-06-16T07:35:09.760Z,98367.78
2023-06-16T07:37:36.601Z,98361.25
2023-06-16T07:40:07.869Z,98357.06
2023-06-16T07:42:34.634Z,98359.34
2023-06-16T07:45:01.222Z,98359.81
2023-06-16T07:47:27.991Z,98358.03
2023-06-16T07:49:54.600Z,98353.34
2023-06-16T07:52:21.380Z,98356.78
2023-06-16T07:54:48.284Z,98361.34
2023-06-16T07:57:15.050Z,98356.00
2023-06-16T07:59:41.747Z,98353.38
2023-06-16T08:02:08.524Z,98346.84
2023-06-16T08:04:35.345Z,98342.09
2023-06-16T08:07:03.429Z,98341.94
2023-06-16T08:09:30.227Z,98339.00
2023-06-16T08:11:57.063Z,98337.22
2023-06-16T08:14:23.722Z,98326.91
2023-06-16T08:16:50.497Z,98327.44
2023-06-16T08:19:17.164Z,98325.97
2023-06-16T08:21:43.813Z,98319.72
2023-06-16T08:24:10.915Z,98323.47
2023-06-16T08:26:39.702Z,98310.22
2023-06-16T08:29:07.797Z,98312.19
2023-06-16T08:31:34.715Z,98307.78
2023-06-16T08:34:02.313Z,98316.75
2023-06-16T08:36:29.553Z,98301.56
2023-06-16T08:38:56.343Z,98303.16
2023-06-16T08:41:24.430Z,98294.16
2023-06-16T08:43:51.958Z,98293.47
2023-06-16T08:46:18.867Z,98291.19
2023-06-16T08:48:46.543Z,98294.13
2023-06-16T08:51:17.857Z,98291.81
2023-06-16T08:53:47.715Z,98289.50
2023-06-16T08:56:19.221Z,98287.38
2023-06-16T08:58:48.421Z,98284.25
2023-06-16T09:01:16.085Z,98282.13
2023-06-16T09:03:49.108Z,98277.03
2023-06-16T09:06:16.466Z,98280.50
2023-06-16T09:08:43.169Z,98284.06
2023-06-16T09:11:09.997Z,98273.44
2023-06-16T09:13:43.154Z,98265.72
2023-06-16T09:16:10.512Z,98258.63
2023-06-16T09:18:42.562Z,98273.72
2023-06-16T09:21:09.655Z,98273.03
2023-06-16T09:23:36.758Z,98270.72
2023-06-16T09:26:16.387Z,98266.28
2023-06-16T09:28:45.357Z,98259.03
2023-06-16T09:31:16.276Z,98257.69
2023-06-16T09:33:43.593Z,98245.59
2023-06-16T09:36:11.097Z,98253.13
2023-06-16T09:38:39.241Z,98241.16
2023-06-16T09:41:10.250Z,98228.00
2023-06-16T09:43:41.033Z,98238.66
2023-06-16T09:46:10.492Z,98228.81
2023-06-16T09:48:48.860Z,98236.59
2023-06-16T09:51:24.225Z,98231.28
2023-06-16T09:53:53.094Z,98225.03
2023-06-16T09:56:20.694Z,98229.75
2023-06-16T09:58:48.757Z,98220.72
2023-06-16T10:01:17.165Z,98222.09
2023-06-16T10:03:49.086Z,98219.09
2023-06-16T10:06:20.218Z,98219.53
2023-06-16T10:08:51.020Z,98217.38
2023-06-16T10:11:19.533Z,98210.06
2023-06-16T10:13:52.714Z,98194.31
2023-06-16T10:16:24.874Z,98205.91
2023-06-16T10:18:54.675Z,98201.44
2023-06-16T10:21:23.847Z,98204.44
2023-06-16T10:23:52.076Z,98196.47
2023-06-16T10:26:19.967Z,98209.66
2023-06-16T10:28:47.304Z,98199.63
2023-06-16T10:31:15.624Z,98192.16
2023-06-16T10:33:56.201Z,98190.06
2023-06-16T10:36:25.022Z,98189.69
2023-06-16T10:38:57.651Z,98188.13
2023-06-16T10:41:25.387Z,98184.75
2023-06-16T10:43:52.170Z,98187.28
2023-06-16T10:46:21.717Z,98179.28
2023-06-16T10:49:06.506Z,98183.41
2023-06-16T10:51:49.833Z,98177.41
2023-06-16T10:54:49.466Z,98181.91
2023-06-16T10:57:16.435Z,98175.91
2023-06-16T11:00:13.550Z,98171.97
2023-06-16T11:02:58.516Z,98175.50
2023-06-16T11:05:40.386Z,98177.91
2023-06-16T11:08:15.024Z,98168.72
2023-06-16T11:10:49.359Z,98173.44
2023-06-16T11:13:17.668Z,98174.09
2023-06-16T11:15:44.943Z,98175.97
2023-06-16T11:18:13.640Z,98176.06
2023-06-16T11:20:41.394Z,98169.53
2023-06-16T11:23:09.131Z,98177.03
2023-06-16T11:25:40.158Z,98167.09
2023-06-16T11:28:07.324Z,98165.75
2023-06-16T11:30:36.853Z,98161.66
2023-06-16T11:33:04.426Z,98160.38
2023-06-16T11:35:34.700Z,98164.53
2023-06-16T11:38:01.857Z,98162.81
2023-06-16T11:40:31.387Z,98170.00
2023-06-16T11:43:01.033Z,98167.38
2023-06-16T11:45:30.315Z,98155.75
2023-06-16T11:47:58.845Z,98156.00
2023-06-16T11:50:26.702Z,98148.84
2023-06-16T11:52:54.167Z,98149.34
2023-06-16T11:55:21.383Z,98146.72
2023-06-16T11:57:48.381Z,98146.09
2023-06-16T12:00:16.529Z,98144.22
2023-06-16T12:02:46.720Z,98140.47
2023-06-16T12:05:25.528Z,98147.53
2023-06-16T12:07:52.333Z,98139.22
2023-06-16T12:10:19.473Z,98132.16
2023-06-16T12:12:48.437Z,98128.47
2023-06-16T12:15:20.107Z,98128.31
2023-06-16T12:17:48.780Z,98118.88
2023-06-16T12:20:18.535Z,98125.81
2023-06-16T12:22:46.149Z,98123.03
2023-06-16T12:25:17.633Z,98126.28
2023-06-16T12:27:50.737Z,98117.38
2023-06-16T12:30:18.575Z,98107.84
2023-06-16T12:32:46.735Z,98106.66
2023-06-16T12:35:23.332Z,98101.00
2023-06-16T12:37:50.152Z,98099.16
2023-06-16T12:40:18.217Z,98090.31
2023-06-16T12:42:45.468Z,98093.72
2023-06-16T12:45:14.493Z,98093.94
2023-06-16T12:47:41.681Z,98092.03
2023-06-16T12:50:08.793Z,98083.53
2023-06-16T12:52:35.588Z,98090.84
2023-06-16T12:55:04.809Z,98076.72
2023-06-16T12:57:31.558Z,98072.47
2023-06-16T12:59:58.268Z,98080.19
2023-06-16T13:02:25.016Z,98074.09
2023-06-16T13:04:51.996Z,98081.81
2023-06-16T13:07:18.984Z,98078.97
2023-06-16T13:09:45.729Z,98078.59
2023-06-16T13:12:13.211Z,98078.38
2023-06-16T13:14:40.874Z,98072.28
2023-06-16T13:17:07.828Z,98069.47
2023-06-16T13:19:34.549Z,98059.94
2023-06-16T13:22:02.464Z,98073.53
2023-06-16T13:24:30.356Z,98055.66
2023-06-16T13:26:57.331Z,98062.97
2023-06-16T13:29:23.964Z,98060.34
2023-06-16T13:31:50.856Z,98056.47
2023-06-16T13:34:17.504Z,98055.47
2023-06-16T13:36:44.320Z,98047.75
2023-06-16T13:39:12.025Z,98047.16
2023-06-16T13:41:38.979Z,98049.19
2023-06-16T13:44:05.810Z,98037.41
2023-06-16T13:46:32.869Z,98044.91
2023-06-16T13:48:59.555Z,98052.81
2023-06-16T13:51:26.512Z,98036.97
2023-06-16T13:53:53.270Z,98029.25
2023-06-16T13:56:21.831Z,98033.50
2023-06-16T13:58:48.480Z,98039.78
2023-06-16T14:01:15.410Z,98037.56
2023-06-16T14:03:42.287Z,98033.91
2023-06-16T14:06:09.135Z,98033.69
2023-06-16T14:08:35.975Z,98034.50
2023-06-16T14:11:02.747Z,98030.25
2023-06-16T14:13:29.409Z,98019.09
2023-06-16T14:15:56.161Z,98023.50
2023-06-16T14:18:22.907Z,98020.66
2023-06-16T14:20:50.028Z,98024.50
2023-06-16T14:23:16.808Z,98017.00
2023-06-16T14:25:47.359Z,98018.59
2023-06-16T14:28:15.264Z,98018.81
2023-06-16T14:30:42.531Z,98014.59
2023-06-16T14:33:11.201Z,98021.88
2023-06-16T14:35:38.205Z,98023.78
2023-06-16T14:38:05.152Z,98031.06
2023-06-16T14:40:32.377Z,98016.59
2023-06-16T14:42:59.542Z,98020.66
2023-06-16T14:45:26.269Z,98020.84
2023-06-16T14:47:53.072Z,98009.88
2023-06-16T14:50:20.386Z,97998.50
2023-06-16T14:52:47.549Z,98000.94
2023-06-16T14:55:14.457Z,98006.38
2023-06-16T14:57:41.582Z,98004.38
2023-06-16T15:00:08.986Z,97994.47
2023-06-16T15:02:36.126Z,97987.94
2023-06-16T15:05:03.050Z,97996.66
2023-06-16T15:07:29.779Z,98002.72
2023-06-16T15:09:56.575Z,97993.97
2023-06-16T15:12:23.304Z,97997.53
2023-06-16T15:14:49.903Z,97985.56
2023-06-16T15:17:16.628Z,97995.88
2023-06-16T15:19:43.473Z,97989.31
2023-06-16T15:22:10.237Z,97993.78
2023-06-16T15:24:37.407Z,97984.75
2023-06-16T15:27:04.587Z,97987.78
2023-06-16T15:29:31.390Z,97982.03
2023-06-16T15:31:58.154Z,97990.16
2023-06-16T15:34:25.080Z,97976.50
2023-06-16T15:36:52.175Z,97978.72
2023-06-16T15:39:19.901Z,97980.72
2023-06-16T15:41:46.963Z,97974.25
2023-06-16T15:44:14.007Z,97973.19
2023-06-16T15:46:41.093Z,97970.56
2023-06-16T15:49:07.766Z,97964.09
2023-06-16T15:51:34.672Z,97971.44
2023-06-16T15:54:01.368Z,97972.19
2023-06-16T15:56:28.241Z,97975.81
2023-06-16T15:58:54.878Z,97974.19
2023-06-16T16:01:21.696Z,97978.59
2023-06-16T16:03:48.597Z,97982.06
2023-06-16T16:06:15.641Z,97970.75
2023-06-16T16:08:42.411Z,97966.25
2023-06-16T16:11:09.934Z,97971.53
2023-06-16T16:13:36.980Z,97966.28
2023-06-16T16:16:03.961Z,97973.41
2023-06-16T16:18:30.914Z,97955.16
2023-06-16T16:20:57.806Z,97963.47
2023-06-16T16:23:24.576Z,97968.38
2023-06-16T16:25:51.251Z,97962.72
2023-06-16T16:28:20.869Z,97969.81
2023-06-16T16:30:47.695Z,97964.72
2023-06-16T16:33:14.508Z,97961.25
2023-06-16T16:35:41.644Z,97961.88
2023-06-16T16:38:08.354Z,97967.03
2023-06-16T16:40:35.050Z,97967.06
2023-06-16T16:43:02.364Z,97972.72
2023-06-16T16:45:29.403Z,97966.19
2023-06-16T16:47:56.319Z,97967.34
2023-06-16T16:50:23.342Z,97964.91
2023-06-16T16:52:50.176Z,97975.03
2023-06-16T16:55:34.437Z,97969.19
2023-06-16T16:58:03.050Z,97971.59
2023-06-16T17:00:29.757Z,97979.09
2023-06-16T17:02:56.546Z,97973.25
2023-06-16T17:05:23.502Z,97972.69
2023-06-16T17:07:50.720Z,97970.50
2023-06-16T17:10:18.097Z,97982.91
2023-06-16T17:12:45.100Z,97982.47
2023-06-16T17:15:11.814Z,97983.69
2023-06-16T17:17:38.692Z,97980.63
2023-06-16T17:20:06.564Z,97980.47
2023-06-16T17:22:33.295Z,97978.88
2023-06-16T17:24:59.946Z,97991.31
2023-06-16T17:27:26.675Z,97991.75
2023-06-16T17:29:53.363Z,97993.16
2023-06-16T17:32:20.142Z,97997.19
2023-06-16T17:34:46.873Z,97989.06
2023-06-16T17:37:13.621Z,98001.47
2023-06-16T17:39:40.302Z,97997.19
2023-06-16T17:42:07.157Z,98000.69
2023-06-16T17:44:33.836Z,98004.34
2023-06-16T17:47:01.289Z,98001.75
2023-06-16T17:49:28.577Z,98004.34
2023-06-16T17:51:57.738Z,98000.91
2023-06-16T17:54:24.395Z,98014.53
2023-06-16T17:56:51.696Z,98010.25
2023-06-16T17:59:18.502Z,98009.66
2023-06-16T18:01:45.460Z,98004.94
2023-06-16T18:04:12.363Z,98017.66
2023-06-16T18:06:39.137Z,98020.50
2023-06-16T18:09:06.009Z,98010.72
2023-06-16T18:11:32.966Z,98010.72
2023-06-16T18:14:00.279Z,98003.03
2023-06-16T18:16:26.983Z,98017.41
2023-06-16T18:18:53.719Z,98020.34
2023-06-16T18:21:20.468Z,98018.03
2023-06-16T18:23:47.209Z,98024.13
2023-06-16T18:26:14.046Z,98019.47
2023-06-16T18:28:40.736Z,98029.16
2023-06-16T18:31:07.525Z,98027.69
2023-06-16T18:33:34.313Z,98027.75
2023-06-16T18:36:01.042Z,98029.31
2023-06-16T18:38:27.743Z,98028.47
2023-06-16T18:40:54.538Z,98037.63
2023-06-16T18:43:25.446Z,98039.84
2023-06-16T18:45:54.780Z,98042.47
2023-06-16T18:48:22.072Z,98040.16
2023-06-16T18:50:48.907Z,98041.72
2023-06-16T18:53:15.631Z,98048.53
2023-06-16T18:55:44.867Z,98043.09
2023-06-16T18:58:11.739Z,98051.38
2023-06-16T19:00:38.671Z,98055.56
2023-06-16T19:03:06.104Z,98059.13
2023-06-16T19:05:33.565Z,98058.06
2023-06-16T19:08:00.838Z,98063.59
2023-06-16T19:10:27.818Z,98065.72
2023-06-16T19:12:54.596Z,98057.81
2023-06-16T19:15:23.447Z,98061.19
2023-06-16T19:17:51.294Z,98075.50
2023-06-16T19:20:18.788Z,98075.16
2023-06-16T19:22:46.024Z,98074.19
2023-06-16T19:25:12.893Z,98089.78
2023-06-16T19:27:39.871Z,98081.28
2023-06-16T19:30:07.787Z,98093.03
2023-06-16T19:32:35.798Z,98096.84
2023-06-16T19:35:03.161Z,98100.34
2023-06-16T19:37:34.211Z,98097.47
2023-06-16T19:40:01.135Z,98110.28
2023-06-16T19:42:27.969Z,98115.44
2023-06-16T19:44:56.694Z,98115.44
2023-06-16T19:47:25.179Z,98126.81
2023-06-16T19:49:52.136Z,98132.44
2023-06-16T19:52:19.032Z,98134.09
2023-06-16T19:54:45.884Z,98137.31
2023-06-16T19:57:13.336Z,98142.34
2023-06-16T19:59:40.604Z,98148.31
2023-06-16T20:02:07.782Z,98153.91
2023-06-16T20:04:35.416Z,98155.28
2023-06-16T20:07:02.508Z,98154.03
2023-06-16T20:09:29.242Z,98159.81
2023-06-16T20:11:56.382Z,98165.41
2023-06-16T20:14:23.325Z,98163.78
2023-06-16T20:16:50.136Z,98167.84
2023-06-16T20:19:16.861Z,98171.75
2023-06-16T20:21:43.510Z,98179.16
2023-06-16T20:24:12.187Z,98178.00
2023-06-16T20:26:39.903Z,98169.66
2023-06-16T20:29:06.933Z,98185.13
2023-06-16T20:31:34.517Z,98180.88
2023-06-16T20:34:01.705Z,98187.19
2023-06-16T20:36:28.614Z,98185.09
2023-06-16T20:38:55.248Z,98200.03
2023-06-16T20:41:29.350Z,98202.38
2023-06-16T20:43:56.808Z,98198.28
2023-06-16T20:46:24.454Z,98190.94
2023-06-16T20:48:51.393Z,98196.00
2023-06-16T20:51:18.419Z,98204.56
2023-06-16T20:53:46.994Z,98204.47
2023-06-16T20:56:14.121Z,98200.00
2023-06-16T20:58:40.831Z,98207.50
2023-06-16T21:01:09.313Z,98210.59
2023-06-16T21:03:36.147Z,98212.44
2023-06-16T21:06:02.936Z,98210.16
2023-06-16T21:08:33.504Z,98211.81
2023-06-16T21:11:01.200Z,98213.63
2023-06-16T21:13:29.060Z,98214.88
2023-06-16T21:16:01.835Z,98215.72
2023-06-16T21:18:32.592Z,98212.16
2023-06-16T21:20:59.888Z,98219.41
2023-06-16T21:23:26.647Z,98224.91
2023-06-16T21:25:53.385Z,98229.03
2023-06-16T21:28:20.042Z,98222.66
2023-06-16T21:30:46.862Z,98219.75
2023-06-16T21:33:13.516Z,98232.66
2023-06-16T21:35:40.197Z,98228.75
2023-06-16T21:38:08.606Z,98227.78
2023-06-16T21:40:37.422Z,98224.47
2023-06-16T21:43:04.093Z,98227.44
2023-06-16T21:45:30.874Z,98233.16
2023-06-16T21:47:57.538Z,98231.50
2023-06-16T21:50:24.679Z,98232.81
2023-06-16T21:52:51.934Z,98228.69
2023-06-16T21:55:18.881Z,98235.25
2023-06-16T21:57:45.555Z,98226.78
2023-06-16T22:00:12.988Z,98235.94
2023-06-16T22:02:40.668Z,98229.38
2023-06-16T22:05:09.024Z,98235.25
2023-06-16T22:07:37.018Z,98245.25
2023-06-16T22:10:04.716Z,98244.91
2023-06-16T22:12:31.956Z,98232.84
2023-06-16T22:14:59.671Z,98244.31
2023-06-16T22:17:27.346Z,98238.44
2023-06-16T22:19:54.323Z,98241.38
2023-06-16T22:22:23.120Z,98235.81
2023-06-16T22:24:49.840Z,98232.72
2023-06-16T22:27:21.785Z,98233.34
2023-06-16T22:29:50.025Z,98242.16
2023-06-16T22:32:17.012Z,98242.31
2023-06-16T22:34:44.352Z,98234.81
2023-06-16T22:37:13.857Z,98235.28
2023-06-16T22:39:42.308Z,98235.81
2023-06-16T22:42:08.966Z,98240.75
2023-06-16T22:44:35.821Z,98242.53
2023-06-16T22:47:02.729Z,98250.56
2023-06-16T22:49:30.220Z,98250.09
2023-06-16T22:52:00.436Z,98258.59
2023-06-16T22:54:28.861Z,98249.59
2023-06-16T22:56:56.098Z,98256.59
2023-06-16T22:59:23.495Z,98255.97
2023-06-16T23:01:50.590Z,98254.50
2023-06-16T23:04:17.586Z,98256.63
2023-06-16T23:06:46.236Z,98256.94
2023-06-16T23:09:12.999Z,98265.56
2023-06-16T23:11:39.684Z,98272.59
2023-06-16T23:14:06.564Z,98269.34
2023-06-16T23:16:34.719Z,98269.00
2023-06-16T23:19:02.059Z,98267.34
2023-06-16T23:21:29.091Z,98264.09
2023-06-16T23:23:57.305Z,98262.31
2023-06-16T23:26:24.416Z,98262.13
2023-06-16T23:28:51.445Z,98263.44
2023-06-16T23:31:20.026Z,98254.81
2023-06-16T23:33:47.966Z,98259.53
2023-06-16T23:36:17.921Z,98277.19
2023-06-16T23:38:49.512Z,98263.75
2023-06-16T23:41:16.450Z,98267.84
2023-06-16T23:43:43.103Z,98268.00
2023-06-16T23:46:09.818Z,98269.97
2023-06-16T23:48:36.427Z,98272.91
2023-06-16T23:51:03.244Z,98265.53
2023-06-16T23:53:31.375Z,98270.94
2023-06-16T23:55:58.293Z,98264.19
2023-06-16T23:58:26.095Z,98262.72
